N421SV LSZR-LEVT
Flight info
| Callsign | N421SV |
|---|---|
| Flight time | 1h 38m |
| Altitude | 41000 |
| Route | TRA Z69 OLBEN N869 NINTU DCT LOBMO DCT NARAK DCT ERAKI N976 PPN |
| Aircraft | LJ35/M-SGHRWXY/SB1 |
Departure
| Time | 2026-04-27 14:29 |
|---|---|
| Airport | Sankt Gallen Altenrhein Airport (LSZR) |
Arrival
| Time | 2026-04-27 16:07 |
|---|---|
| Airport | Vitoria Airport (LEVT) |
| Time | Latitude | Longitude | Altitude | Speed | Heading |
|---|---|---|---|---|---|
| 2026-04-27 14:11 | 47.48725 | 9.55210 | 1309 ft | 0 kts | 7° |
| 2026-04-27 14:25 | 47.48730 | 9.55211 | 1205 ft | 4 kts | 12° |
| 2026-04-27 14:25 | 47.48741 | 9.55282 | 1307 ft | 11 kts | 98° |
| 2026-04-27 14:26 | 47.48720 | 9.55347 | 1307 ft | 9 kts | 176° |
| 2026-04-27 14:26 | 47.48629 | 9.55332 | 1310 ft | 15 kts | 187° |
| 2026-04-27 14:26 | 47.48570 | 9.55447 | 1313 ft | 20 kts | 98° |
| 2026-04-27 14:26 | 47.48547 | 9.55673 | 1312 ft | 24 kts | 99° |
| 2026-04-27 14:27 | 47.48520 | 9.55932 | 1313 ft | 28 kts | 98° |
| 2026-04-27 14:27 | 47.48487 | 9.56244 | 1307 ft | 32 kts | 98° |
| 2026-04-27 14:27 | 47.48453 | 9.56578 | 1304 ft | 33 kts | 100° |
| 2026-04-27 14:27 | 47.48420 | 9.56893 | 1306 ft | 23 kts | 98° |
| 2026-04-27 14:28 | 47.48420 | 9.57026 | 1310 ft | 11 kts | 77° |
| 2026-04-27 14:28 | 47.48403 | 9.57036 | 1311 ft | 8 kts | 285° |
| 2026-04-27 14:28 | 47.48406 | 9.57016 | 1310 ft | 0 kts | 279° |
| 2026-04-27 14:29 | 47.48411 | 9.56971 | 1308 ft | 33 kts | 279° |
| 2026-04-27 14:29 | 47.48517 | 9.55960 | 1354 ft | 162 kts | 279° |
| 2026-04-27 14:29 | 47.48759 | 9.53978 | 2572 ft | 216 kts | 283° |
| 2026-04-27 14:29 | 47.49384 | 9.51924 | 3838 ft | 223 kts | 311° |
| 2026-04-27 14:30 | 47.50666 | 9.50708 | 5109 ft | 222 kts | 346° |
| 2026-04-27 14:30 | 47.52192 | 9.50743 | 6347 ft | 225 kts | 14° |
| 2026-04-27 14:30 | 47.53789 | 9.51547 | 7170 ft | 264 kts | 18° |
| 2026-04-27 14:30 | 47.55647 | 9.52246 | 8460 ft | 277 kts | 10° |
| 2026-04-27 14:31 | 47.57553 | 9.52691 | 10249 ft | 281 kts | 7° |
| 2026-04-27 14:31 | 47.59511 | 9.53061 | 12013 ft | 287 kts | 360° |
| 2026-04-27 14:31 | 47.61459 | 9.52444 | 13897 ft | 290 kts | 334° |
| 2026-04-27 14:31 | 47.63063 | 9.50629 | 15579 ft | 295 kts | 310° |
| 2026-04-27 14:32 | 47.64184 | 9.48056 | 17278 ft | 301 kts | 300° |
| 2026-04-27 14:32 | 47.65229 | 9.45267 | 18896 ft | 308 kts | 301° |
| 2026-04-27 14:32 | 47.66417 | 9.42595 | 20304 ft | 313 kts | 307° |
| 2026-04-27 14:32 | 47.67861 | 9.40125 | 21706 ft | 320 kts | 313° |
| 2026-04-27 14:33 | 47.69396 | 9.37689 | 23079 ft | 326 kts | 311° |
| 2026-04-27 14:33 | 47.70882 | 9.35106 | 24243 ft | 333 kts | 309° |
| 2026-04-27 14:33 | 47.72358 | 9.32417 | 25359 ft | 338 kts | 309° |
| 2026-04-27 14:33 | 47.73884 | 9.29721 | 26432 ft | 344 kts | 310° |
| 2026-04-27 14:34 | 47.75396 | 9.26941 | 27444 ft | 350 kts | 302° |
| 2026-04-27 14:34 | 47.76316 | 9.23581 | 28453 ft | 356 kts | 283° |
| 2026-04-27 14:34 | 47.76403 | 9.19892 | 29410 ft | 366 kts | 265° |
| 2026-04-27 14:34 | 47.75848 | 9.16161 | 30330 ft | 374 kts | 257° |
| 2026-04-27 14:35 | 47.75435 | 9.14066 | 30748 ft | 377 kts | 256° |
| 2026-04-27 14:35 | 47.75192 | 9.12851 | 30985 ft | 378 kts | 257° |
| 2026-04-27 14:35 | 47.74497 | 9.09059 | 31714 ft | 382 kts | 260° |
| 2026-04-27 14:35 | 47.74059 | 9.05159 | 32444 ft | 382 kts | 266° |
| 2026-04-27 14:36 | 47.73850 | 9.01241 | 33351 ft | 379 kts | 269° |
| 2026-04-27 14:36 | 47.73640 | 8.97332 | 34237 ft | 378 kts | 266° |
| 2026-04-27 14:36 | 47.73286 | 8.93469 | 34984 ft | 377 kts | 264° |
| 2026-04-27 14:36 | 47.72897 | 8.89625 | 35718 ft | 375 kts | 265° |
| 2026-04-27 14:37 | 47.72577 | 8.85793 | 36433 ft | 373 kts | 266° |
| 2026-04-27 14:37 | 47.72285 | 8.81973 | 37163 ft | 371 kts | 266° |
| 2026-04-27 14:37 | 47.71964 | 8.78173 | 37880 ft | 370 kts | 265° |
| 2026-04-27 14:37 | 47.71625 | 8.74385 | 38576 ft | 368 kts | 265° |
| 2026-04-27 14:38 | 47.71301 | 8.70671 | 39165 ft | 367 kts | 265° |
| 2026-04-27 14:38 | 47.70978 | 8.66847 | 39620 ft | 368 kts | 265° |
| 2026-04-27 14:38 | 47.70659 | 8.63123 | 40068 ft | 369 kts | 265° |
| 2026-04-27 14:38 | 47.70326 | 8.59335 | 40525 ft | 370 kts | 265° |
| 2026-04-27 14:39 | 47.70027 | 8.55935 | 40900 ft | 372 kts | 265° |
| 2026-04-27 14:39 | 47.69671 | 8.51857 | 41189 ft | 378 kts | 265° |
| 2026-04-27 14:40 | 47.69248 | 8.47294 | 41193 ft | 393 kts | 262° |
| 2026-04-27 14:40 | 47.68439 | 8.43332 | 41152 ft | 409 kts | 250° |
| 2026-04-27 14:40 | 47.67042 | 8.39577 | 41159 ft | 423 kts | 239° |
| 2026-04-27 14:41 | 47.63568 | 8.32301 | 41173 ft | 439 kts | 238° |
| 2026-04-27 14:41 | 47.60048 | 8.24794 | 41176 ft | 446 kts | 238° |
| 2026-04-27 14:42 | 47.56477 | 8.17305 | 41172 ft | 445 kts | 238° |
| 2026-04-27 14:42 | 47.52978 | 8.09912 | 41172 ft | 446 kts | 238° |
| 2026-04-27 14:43 | 47.49393 | 8.02398 | 41162 ft | 447 kts | 238° |
| 2026-04-27 14:43 | 47.45811 | 7.94893 | 41171 ft | 445 kts | 238° |
| 2026-04-27 14:44 | 47.42243 | 7.87438 | 41179 ft | 444 kts | 238° |
| 2026-04-27 14:44 | 47.39274 | 7.81261 | 41183 ft | 443 kts | 238° |
| 2026-04-27 14:45 | 47.35122 | 7.72629 | 41186 ft | 443 kts | 238° |
| 2026-04-27 14:45 | 47.32122 | 7.66420 | 41174 ft | 444 kts | 238° |
| 2026-04-27 14:46 | 47.28408 | 7.59139 | 41175 ft | 445 kts | 234° |
| 2026-04-27 14:46 | 47.24550 | 7.51987 | 41168 ft | 445 kts | 235° |
| 2026-04-27 14:47 | 47.20712 | 7.44844 | 41171 ft | 445 kts | 234° |
| 2026-04-27 14:47 | 47.16854 | 7.37718 | 41167 ft | 445 kts | 234° |
| 2026-04-27 14:48 | 47.13021 | 7.30628 | 41161 ft | 446 kts | 234° |
| 2026-04-27 14:48 | 47.07217 | 7.19944 | 41160 ft | 446 kts | 234° |
| 2026-04-27 14:49 | 47.03341 | 7.12827 | 41160 ft | 446 kts | 234° |
| 2026-04-27 14:49 | 46.99457 | 7.05720 | 41164 ft | 446 kts | 234° |
| 2026-04-27 14:50 | 46.95568 | 6.98621 | 41201 ft | 446 kts | 234° |
| 2026-04-27 14:50 | 46.91675 | 6.91531 | 41206 ft | 446 kts | 234° |
| 2026-04-27 14:51 | 46.87803 | 6.84500 | 41204 ft | 446 kts | 234° |
| 2026-04-27 14:51 | 46.83906 | 6.77443 | 41203 ft | 446 kts | 234° |
| 2026-04-27 14:52 | 46.80000 | 6.70385 | 41199 ft | 446 kts | 234° |
| 2026-04-27 14:52 | 46.76090 | 6.63339 | 41186 ft | 447 kts | 234° |
| 2026-04-27 14:53 | 46.72142 | 6.56311 | 41175 ft | 449 kts | 232° |
| 2026-04-27 14:53 | 46.67992 | 6.49499 | 41162 ft | 449 kts | 232° |
| 2026-04-27 14:54 | 46.63868 | 6.42680 | 41164 ft | 448 kts | 231° |
| 2026-04-27 14:54 | 46.59722 | 6.35888 | 41169 ft | 448 kts | 231° |
| 2026-04-27 14:55 | 46.55588 | 6.29106 | 41163 ft | 448 kts | 231° |
| 2026-04-27 14:55 | 46.51441 | 6.22333 | 41163 ft | 449 kts | 231° |
| 2026-04-27 14:56 | 46.47286 | 6.15560 | 41170 ft | 449 kts | 231° |
| 2026-04-27 14:56 | 46.43125 | 6.08794 | 41166 ft | 449 kts | 231° |
| 2026-04-27 14:57 | 46.38955 | 6.02030 | 41187 ft | 450 kts | 231° |
| 2026-04-27 14:57 | 46.34806 | 5.95319 | 41195 ft | 449 kts | 231° |
| 2026-04-27 14:58 | 46.30647 | 5.88588 | 41191 ft | 448 kts | 232° |
| 2026-04-27 14:58 | 46.27090 | 5.81244 | 41188 ft | 445 kts | 238° |
| 2026-04-27 14:59 | 46.23564 | 5.73875 | 41181 ft | 446 kts | 238° |
| 2026-04-27 14:59 | 46.20062 | 5.66479 | 41166 ft | 446 kts | 238° |
| 2026-04-27 15:00 | 46.16537 | 5.59101 | 41164 ft | 447 kts | 238° |
| 2026-04-27 15:00 | 46.13112 | 5.51642 | 41162 ft | 445 kts | 240° |
| 2026-04-27 15:01 | 46.09780 | 5.44106 | 41167 ft | 445 kts | 240° |
| 2026-04-27 15:01 | 46.06442 | 5.36582 | 41166 ft | 445 kts | 240° |
| 2026-04-27 15:02 | 46.03106 | 5.29066 | 41161 ft | 446 kts | 240° |
| 2026-04-27 15:02 | 45.99758 | 5.21561 | 41166 ft | 446 kts | 240° |
| 2026-04-27 15:03 | 45.96406 | 5.14051 | 41164 ft | 446 kts | 240° |
| 2026-04-27 15:03 | 45.93049 | 5.06561 | 41171 ft | 444 kts | 240° |
| 2026-04-27 15:04 | 45.89701 | 4.99105 | 41172 ft | 444 kts | 240° |
| 2026-04-27 15:04 | 45.86371 | 4.91711 | 41168 ft | 444 kts | 239° |
| 2026-04-27 15:05 | 45.83007 | 4.84262 | 41170 ft | 444 kts | 239° |
| 2026-04-27 15:05 | 45.79639 | 4.76822 | 41173 ft | 445 kts | 239° |
| 2026-04-27 15:06 | 45.76269 | 4.69396 | 41170 ft | 444 kts | 239° |
| 2026-04-27 15:06 | 45.73059 | 4.62344 | 41162 ft | 445 kts | 239° |
| 2026-04-27 15:07 | 45.69673 | 4.54924 | 41183 ft | 445 kts | 239° |
| 2026-04-27 15:07 | 45.66284 | 4.47514 | 41195 ft | 445 kts | 239° |
| 2026-04-27 15:08 | 45.62889 | 4.40113 | 41205 ft | 445 kts | 239° |
| 2026-04-27 15:08 | 45.59487 | 4.32715 | 41212 ft | 445 kts | 239° |
| 2026-04-27 15:09 | 45.56081 | 4.25327 | 41204 ft | 445 kts | 238° |
| 2026-04-27 15:09 | 45.52673 | 4.17957 | 41205 ft | 445 kts | 238° |
| 2026-04-27 15:10 | 45.49265 | 4.10601 | 41196 ft | 445 kts | 238° |
| 2026-04-27 15:10 | 45.45870 | 4.03297 | 41184 ft | 445 kts | 238° |
| 2026-04-27 15:11 | 45.42440 | 3.95934 | 41175 ft | 445 kts | 238° |
| 2026-04-27 15:11 | 45.39009 | 3.88588 | 41162 ft | 445 kts | 238° |
| 2026-04-27 15:12 | 45.35575 | 3.81255 | 41166 ft | 445 kts | 238° |
| 2026-04-27 15:12 | 45.32133 | 3.73925 | 41142 ft | 445 kts | 238° |
| 2026-04-27 15:13 | 45.28699 | 3.66628 | 41153 ft | 445 kts | 238° |
| 2026-04-27 15:13 | 45.25251 | 3.59324 | 41154 ft | 445 kts | 238° |
| 2026-04-27 15:14 | 45.21794 | 3.52015 | 41151 ft | 445 kts | 238° |
| 2026-04-27 15:14 | 45.18357 | 3.44772 | 41153 ft | 445 kts | 238° |
| 2026-04-27 15:15 | 45.14873 | 3.37443 | 41152 ft | 445 kts | 238° |
| 2026-04-27 15:15 | 45.11430 | 3.30222 | 41155 ft | 445 kts | 238° |
| 2026-04-27 15:16 | 45.07960 | 3.22964 | 41155 ft | 445 kts | 238° |
| 2026-04-27 15:16 | 45.04483 | 3.15708 | 41162 ft | 445 kts | 238° |
| 2026-04-27 15:17 | 45.00999 | 3.08456 | 41155 ft | 445 kts | 238° |
| 2026-04-27 15:17 | 44.97471 | 3.01261 | 41164 ft | 445 kts | 235° |
| 2026-04-27 15:18 | 44.93766 | 2.94261 | 41161 ft | 444 kts | 235° |
| 2026-04-27 15:18 | 44.90082 | 2.87249 | 41158 ft | 445 kts | 235° |
| 2026-04-27 15:19 | 44.86373 | 2.80260 | 41165 ft | 445 kts | 235° |
| 2026-04-27 15:19 | 44.82674 | 2.73271 | 41164 ft | 445 kts | 235° |
| 2026-04-27 15:20 | 44.78987 | 2.66342 | 41168 ft | 444 kts | 235° |
| 2026-04-27 15:20 | 44.75284 | 2.59392 | 41172 ft | 443 kts | 235° |
| 2026-04-27 15:21 | 44.71584 | 2.52466 | 41173 ft | 443 kts | 235° |
| 2026-04-27 15:21 | 44.67877 | 2.45545 | 41172 ft | 443 kts | 235° |
| 2026-04-27 15:22 | 44.64171 | 2.38639 | 41170 ft | 443 kts | 234° |
| 2026-04-27 15:22 | 44.60454 | 2.31733 | 41170 ft | 443 kts | 234° |
| 2026-04-27 15:23 | 44.56740 | 2.24847 | 41166 ft | 442 kts | 234° |
| 2026-04-27 15:23 | 44.53024 | 2.17974 | 41164 ft | 442 kts | 234° |
| 2026-04-27 15:24 | 44.49304 | 2.11110 | 41161 ft | 442 kts | 234° |
| 2026-04-27 15:24 | 44.46207 | 2.05409 | 41161 ft | 442 kts | 234° |
| 2026-04-27 15:25 | 44.42482 | 1.98564 | 41159 ft | 442 kts | 234° |
| 2026-04-27 15:25 | 44.38748 | 1.91720 | 41153 ft | 443 kts | 234° |
| 2026-04-27 15:26 | 44.35004 | 1.84877 | 41154 ft | 442 kts | 234° |
| 2026-04-27 15:26 | 44.31263 | 1.78051 | 41152 ft | 442 kts | 234° |
| 2026-04-27 15:27 | 44.27797 | 1.70999 | 41156 ft | 440 kts | 240° |
| 2026-04-27 15:27 | 44.24604 | 1.63767 | 41152 ft | 440 kts | 239° |
| 2026-04-27 15:28 | 44.21365 | 1.56518 | 41149 ft | 440 kts | 240° |
| 2026-04-27 15:28 | 44.18136 | 1.49251 | 41151 ft | 440 kts | 239° |
| 2026-04-27 15:29 | 44.14898 | 1.42026 | 41148 ft | 440 kts | 240° |
| 2026-04-27 15:29 | 44.11668 | 1.34805 | 41150 ft | 439 kts | 239° |
| 2026-04-27 15:30 | 44.08424 | 1.27593 | 41152 ft | 439 kts | 239° |
| 2026-04-27 15:30 | 44.05181 | 1.20388 | 41149 ft | 439 kts | 239° |
| 2026-04-27 15:31 | 44.01934 | 1.13199 | 41145 ft | 439 kts | 239° |
| 2026-04-27 15:31 | 43.98685 | 1.06020 | 41153 ft | 439 kts | 239° |
| 2026-04-27 15:32 | 43.95435 | 0.98856 | 41153 ft | 439 kts | 239° |
| 2026-04-27 15:32 | 43.92174 | 0.91689 | 41154 ft | 439 kts | 239° |
| 2026-04-27 15:33 | 43.88911 | 0.84533 | 41157 ft | 439 kts | 239° |
| 2026-04-27 15:33 | 43.85641 | 0.77382 | 41157 ft | 439 kts | 239° |
| 2026-04-27 15:34 | 43.82376 | 0.70255 | 41154 ft | 438 kts | 239° |
| 2026-04-27 15:34 | 43.79125 | 0.63178 | 41158 ft | 438 kts | 239° |
| 2026-04-27 15:35 | 43.75848 | 0.56062 | 41160 ft | 438 kts | 239° |
| 2026-04-27 15:35 | 43.72566 | 0.48952 | 41163 ft | 438 kts | 239° |
| 2026-04-27 15:36 | 43.69278 | 0.41846 | 41168 ft | 438 kts | 239° |
| 2026-04-27 15:36 | 43.65984 | 0.34746 | 41170 ft | 437 kts | 239° |
| 2026-04-27 15:37 | 43.62722 | 0.27731 | 41161 ft | 437 kts | 239° |
| 2026-04-27 15:37 | 43.59429 | 0.20666 | 41174 ft | 437 kts | 239° |
| 2026-04-27 15:38 | 43.56132 | 0.13609 | 41173 ft | 438 kts | 238° |
| 2026-04-27 15:38 | 43.52827 | 0.06553 | 41175 ft | 438 kts | 238° |
| 2026-04-27 15:39 | 43.49521 | -0.00490 | 41183 ft | 437 kts | 238° |
| 2026-04-27 15:39 | 43.47874 | -0.03995 | 40804 ft | 435 kts | 238° |
| 2026-04-27 15:39 | 43.46232 | -0.07475 | 40320 ft | 433 kts | 238° |
| 2026-04-27 15:40 | 43.44593 | -0.10951 | 39852 ft | 432 kts | 238° |
| 2026-04-27 15:40 | 43.42965 | -0.14402 | 39384 ft | 431 kts | 238° |
| 2026-04-27 15:40 | 43.41323 | -0.17878 | 38932 ft | 431 kts | 238° |
| 2026-04-27 15:40 | 43.39687 | -0.21337 | 38389 ft | 432 kts | 238° |
| 2026-04-27 15:41 | 43.38041 | -0.24808 | 37836 ft | 434 kts | 238° |
| 2026-04-27 15:41 | 43.36391 | -0.28287 | 37297 ft | 436 kts | 238° |
| 2026-04-27 15:41 | 43.34732 | -0.31782 | 36770 ft | 437 kts | 238° |
| 2026-04-27 15:41 | 43.33065 | -0.35290 | 36259 ft | 438 kts | 237° |
| 2026-04-27 15:42 | 43.31400 | -0.38788 | 35761 ft | 439 kts | 237° |
| 2026-04-27 15:42 | 43.29748 | -0.42254 | 35275 ft | 439 kts | 237° |
| 2026-04-27 15:42 | 43.28073 | -0.45765 | 34796 ft | 440 kts | 237° |
| 2026-04-27 15:42 | 43.26395 | -0.49280 | 34319 ft | 440 kts | 237° |
| 2026-04-27 15:43 | 43.24710 | -0.52802 | 33793 ft | 440 kts | 237° |
| 2026-04-27 15:43 | 43.23030 | -0.56311 | 33258 ft | 440 kts | 237° |
| 2026-04-27 15:43 | 43.21346 | -0.59826 | 32728 ft | 441 kts | 237° |
| 2026-04-27 15:43 | 43.19657 | -0.63347 | 32222 ft | 444 kts | 237° |
| 2026-04-27 15:44 | 43.17953 | -0.66893 | 31708 ft | 447 kts | 237° |
| 2026-04-27 15:44 | 43.16240 | -0.70454 | 31213 ft | 448 kts | 237° |
| 2026-04-27 15:44 | 43.14516 | -0.74031 | 30716 ft | 450 kts | 237° |
| 2026-04-27 15:44 | 43.12791 | -0.77609 | 30241 ft | 450 kts | 236° |
| 2026-04-27 15:45 | 43.11064 | -0.81186 | 29685 ft | 449 kts | 236° |
| 2026-04-27 15:45 | 43.09346 | -0.84751 | 29136 ft | 449 kts | 237° |
| 2026-04-27 15:45 | 43.07991 | -0.88596 | 28568 ft | 449 kts | 249° |
| 2026-04-27 15:45 | 43.07091 | -0.92680 | 28035 ft | 449 kts | 255° |
| 2026-04-27 15:46 | 43.06387 | -0.96765 | 27527 ft | 440 kts | 257° |
| 2026-04-27 15:46 | 43.05691 | -1.00769 | 27018 ft | 427 kts | 255° |
| 2026-04-27 15:46 | 43.04807 | -1.04618 | 26515 ft | 422 kts | 250° |
| 2026-04-27 15:46 | 43.03830 | -1.08391 | 26015 ft | 420 kts | 251° |
| 2026-04-27 15:47 | 43.02942 | -1.12237 | 25520 ft | 418 kts | 253° |
| 2026-04-27 15:47 | 43.02140 | -1.16053 | 25049 ft | 416 kts | 253° |
| 2026-04-27 15:47 | 43.01310 | -1.19784 | 24581 ft | 414 kts | 252° |
| 2026-04-27 15:47 | 43.00413 | -1.23562 | 24107 ft | 411 kts | 252° |
| 2026-04-27 15:48 | 42.99560 | -1.27219 | 23641 ft | 408 kts | 252° |
| 2026-04-27 15:48 | 42.98731 | -1.30914 | 23100 ft | 406 kts | 253° |
| 2026-04-27 15:48 | 42.97902 | -1.34586 | 22568 ft | 404 kts | 252° |
| 2026-04-27 15:49 | 42.96217 | -1.41848 | 21647 ft | 398 kts | 252° |
| 2026-04-27 15:49 | 42.95391 | -1.45447 | 21216 ft | 396 kts | 252° |
| 2026-04-27 15:49 | 42.94573 | -1.49014 | 20793 ft | 392 kts | 252° |
| 2026-04-27 15:49 | 42.93759 | -1.52536 | 20373 ft | 389 kts | 252° |
| 2026-04-27 15:50 | 42.92944 | -1.56043 | 19962 ft | 386 kts | 252° |
| 2026-04-27 15:50 | 42.92137 | -1.59519 | 19557 ft | 384 kts | 252° |
| 2026-04-27 15:50 | 42.91332 | -1.62994 | 19150 ft | 382 kts | 252° |
| 2026-04-27 15:50 | 42.90531 | -1.66439 | 18756 ft | 381 kts | 252° |
| 2026-04-27 15:51 | 42.89729 | -1.69881 | 18344 ft | 379 kts | 252° |
| 2026-04-27 15:51 | 42.88929 | -1.73303 | 17906 ft | 378 kts | 252° |
| 2026-04-27 15:51 | 42.88133 | -1.76711 | 17456 ft | 377 kts | 252° |
| 2026-04-27 15:51 | 42.87338 | -1.80112 | 17021 ft | 376 kts | 252° |
| 2026-04-27 15:52 | 42.86544 | -1.83496 | 16587 ft | 371 kts | 252° |
| 2026-04-27 15:52 | 42.85767 | -1.86810 | 16160 ft | 364 kts | 252° |
| 2026-04-27 15:52 | 42.85002 | -1.90063 | 15729 ft | 358 kts | 252° |
| 2026-04-27 15:52 | 42.84246 | -1.93275 | 15306 ft | 353 kts | 252° |
| 2026-04-27 15:53 | 42.83497 | -1.96447 | 14896 ft | 350 kts | 252° |
| 2026-04-27 15:53 | 42.82756 | -1.99586 | 14490 ft | 347 kts | 252° |
| 2026-04-27 15:53 | 42.82018 | -2.02708 | 14079 ft | 345 kts | 252° |
| 2026-04-27 15:53 | 42.81283 | -2.05813 | 13656 ft | 344 kts | 252° |
| 2026-04-27 15:54 | 42.80550 | -2.08907 | 13210 ft | 343 kts | 252° |
| 2026-04-27 15:54 | 42.79817 | -2.11994 | 12770 ft | 341 kts | 252° |
| 2026-04-27 15:54 | 42.79084 | -2.15071 | 12335 ft | 342 kts | 252° |
| 2026-04-27 15:54 | 42.78347 | -2.18166 | 11909 ft | 344 kts | 252° |
| 2026-04-27 15:55 | 42.77608 | -2.21270 | 11489 ft | 345 kts | 252° |
| 2026-04-27 15:55 | 42.77115 | -2.23337 | 11212 ft | 345 kts | 252° |
| 2026-04-27 15:55 | 42.76132 | -2.27448 | 10666 ft | 337 kts | 252° |
| 2026-04-27 15:55 | 42.75411 | -2.30458 | 10263 ft | 332 kts | 251° |
| 2026-04-27 15:56 | 42.74702 | -2.33418 | 9841 ft | 327 kts | 252° |
| 2026-04-27 15:56 | 42.74010 | -2.36317 | 9397 ft | 318 kts | 252° |
| 2026-04-27 15:56 | 42.73333 | -2.39137 | 8958 ft | 310 kts | 251° |
| 2026-04-27 15:56 | 42.72671 | -2.41881 | 8529 ft | 300 kts | 251° |
| 2026-04-27 15:57 | 42.72037 | -2.44515 | 8107 ft | 288 kts | 251° |
| 2026-04-27 15:57 | 42.71422 | -2.47067 | 7684 ft | 280 kts | 251° |
| 2026-04-27 15:57 | 42.70824 | -2.49543 | 7301 ft | 271 kts | 251° |
| 2026-04-27 15:57 | 42.70249 | -2.51925 | 7002 ft | 261 kts | 251° |
| 2026-04-27 15:58 | 42.69689 | -2.54234 | 6710 ft | 253 kts | 251° |
| 2026-04-27 15:58 | 42.69142 | -2.56494 | 6400 ft | 251 kts | 251° |
| 2026-04-27 15:58 | 42.68596 | -2.58746 | 6098 ft | 250 kts | 251° |
| 2026-04-27 15:58 | 42.68049 | -2.60942 | 6075 ft | 240 kts | 248° |
| 2026-04-27 15:59 | 42.67220 | -2.62845 | 6067 ft | 231 kts | 233° |
| 2026-04-27 15:59 | 42.66311 | -2.64607 | 6064 ft | 224 kts | 235° |
| 2026-04-27 15:59 | 42.65477 | -2.66361 | 6002 ft | 221 kts | 241° |
| 2026-04-27 15:59 | 42.65050 | -2.68372 | 5791 ft | 224 kts | 263° |
| 2026-04-27 16:00 | 42.65025 | -2.70483 | 5614 ft | 222 kts | 269° |
| 2026-04-27 16:00 | 42.65026 | -2.71858 | 5580 ft | 217 kts | 268° |
| 2026-04-27 16:00 | 42.65007 | -2.74520 | 5568 ft | 205 kts | 268° |
| 2026-04-27 16:00 | 42.64993 | -2.76420 | 5569 ft | 198 kts | 268° |
| 2026-04-27 16:01 | 42.65108 | -2.78231 | 5567 ft | 194 kts | 284° |
| 2026-04-27 16:01 | 42.65496 | -2.79973 | 5574 ft | 191 kts | 284° |
| 2026-04-27 16:01 | 42.65842 | -2.81699 | 5565 ft | 188 kts | 283° |
| 2026-04-27 16:01 | 42.66184 | -2.83403 | 5570 ft | 186 kts | 284° |
| 2026-04-27 16:02 | 42.66614 | -2.85070 | 5556 ft | 190 kts | 298° |
| 2026-04-27 16:02 | 42.67542 | -2.86435 | 5325 ft | 206 kts | 323° |
| 2026-04-27 16:02 | 42.68916 | -2.87153 | 5029 ft | 221 kts | 353° |
| 2026-04-27 16:02 | 42.70479 | -2.87075 | 4739 ft | 229 kts | 6° |
| 2026-04-27 16:03 | 42.72081 | -2.86849 | 4461 ft | 231 kts | 6° |
| 2026-04-27 16:03 | 42.73626 | -2.86564 | 4275 ft | 216 kts | 16° |
| 2026-04-27 16:03 | 42.74894 | -2.85634 | 4271 ft | 200 kts | 37° |
| 2026-04-27 16:03 | 42.75989 | -2.84554 | 4271 ft | 188 kts | 37° |
| 2026-04-27 16:04 | 42.77016 | -2.83546 | 4095 ft | 179 kts | 36° |
| 2026-04-27 16:04 | 42.78014 | -2.82565 | 3862 ft | 176 kts | 37° |
| 2026-04-27 16:04 | 42.78990 | -2.81606 | 3635 ft | 168 kts | 37° |
| 2026-04-27 16:04 | 42.79886 | -2.80721 | 3425 ft | 145 kts | 37° |
| 2026-04-27 16:05 | 42.80397 | -2.80218 | 3296 ft | 134 kts | 36° |
| 2026-04-27 16:05 | 42.81168 | -2.79458 | 3122 ft | 136 kts | 37° |
| 2026-04-27 16:05 | 42.81930 | -2.78704 | 2932 ft | 136 kts | 36° |
| 2026-04-27 16:05 | 42.82942 | -2.77704 | 2687 ft | 136 kts | 36° |
| 2026-04-27 16:06 | 42.83704 | -2.76952 | 2498 ft | 135 kts | 36° |
| 2026-04-27 16:06 | 42.84212 | -2.76450 | 2375 ft | 136 kts | 36° |
| 2026-04-27 16:06 | 42.84987 | -2.75696 | 2203 ft | 134 kts | 36° |
| 2026-04-27 16:06 | 42.85736 | -2.74967 | 2036 ft | 131 kts | 38° |
| 2026-04-27 16:07 | 42.86469 | -2.74233 | 1833 ft | 131 kts | 38° |
| 2026-04-27 16:07 | 42.87202 | -2.73513 | 1679 ft | 130 kts | 37° |
| 2026-04-27 16:07 | 42.87840 | -2.72884 | 1670 ft | 87 kts | 36° |
| 2026-04-27 16:07 | 42.88181 | -2.72549 | 1667 ft | 39 kts | 36° |
| 2026-04-27 16:08 | 42.88330 | -2.72402 | 1669 ft | 19 kts | 36° |
| 2026-04-27 16:08 | 42.88447 | -2.72288 | 1669 ft | 21 kts | 36° |
| 2026-04-27 16:08 | 42.88548 | -2.72201 | 1670 ft | 15 kts | 25° |
| 2026-04-27 16:08 | 42.88645 | -2.72162 | 1670 ft | 13 kts | 4° |
| 2026-04-27 16:09 | 42.88737 | -2.72186 | 1675 ft | 15 kts | 326° |
| 2026-04-27 16:09 | 42.88618 | -2.72422 | 1671 ft | 23 kts | 216° |
| 2026-04-27 16:09 | 42.88502 | -2.72535 | 1673 ft | 23 kts | 216° |
| 2026-04-27 16:10 | 42.88215 | -2.72818 | 1666 ft | 25 kts | 216° |
| 2026-04-27 16:10 | 42.87963 | -2.73066 | 1663 ft | 15 kts | 215° |
| 2026-04-27 16:11 | 42.87862 | -2.73166 | 1662 ft | 21 kts | 216° |
| 2026-04-27 16:11 | 42.87774 | -2.73347 | 1672 ft | 14 kts | 307° |
| 2026-04-27 16:12 | 42.87853 | -2.73517 | 1660 ft | 11 kts | 303° |
| 2026-04-27 16:12 | 42.87895 | -2.73513 | 1665 ft | 9 kts | 35° |
| 2026-04-27 16:12 | 42.87914 | -2.73494 | 1666 ft | 0 kts | 37° |